Flight Track Log - Related Links

Times and Time Zones

All times are in EDT time to prevent confusion due to time zone crossing. See the CPT1940 flight status page for this flight to view local times or setup timezone preferences in your user account.

Time Position Orientation Groundspeed Altitude Reporting Facility
EDT Latitude Longitude Course Direction KTS MPH feet Rate Location/Type
Fri 10:10:00 AM 41.9372 -103.6981 310° West 108 124 7,400  Level Denver Center
Fri 10:11:02 AM 41.9567 -103.7272 312° West 109 125 8,300 829 Climbing Denver Center
Fri 10:12:03 AM 41.9783 -103.7606 311° West 107 123 9,100 732 Climbing Denver Center
Fri 10:13:05 AM 41.9972 -103.7894 311° West 107 123 9,800 439 Climbing Denver Center
Fri 10:14:06 AM 42.0208 -103.8275 310° West 114 131 10,000 98 Climbing Denver Center
Fri 10:15:08 AM 42.0444 -103.8644 311° West 127 146 10,000  Level Denver Center
Fri 10:16:09 AM 42.0739 -103.9094 311° West 138 159 10,000  Level Denver Center
Fri 10:17:11 AM 42.0986 -103.9475 311° West 141 162 10,000  Level Denver Center
Fri 10:18:13 AM 42.1219 -103.9850 310° West 139 160 10,000  Level Denver Center
Fri 10:19:14 AM 42.1500 -104.0289 311° West 137 158 10,000  Level Denver Center
Fri 10:20:16 AM 42.1750 -104.0675 311° West 140 161 10,000  Level Denver Center
Fri 10:21:18 AM 42.2028 -104.1117 310° West 139 160 10,000  Level Denver Center
Fri 10:22:19 AM 42.2264 -104.1492 310° West 137 158 10,000  Level Denver Center
Fri 10:23:21 AM 42.2558 -104.1936 312° West 140 161 10,000  Level Denver Center
Fri 10:24:23 AM 42.2792 -104.2314 310° West 139 160 10,000  Level Denver Center
Fri 10:25:25 AM 42.3033 -104.2700 310° West 139 160 10,000  Level Denver Center
Fri 10:26:26 AM 42.3314 -104.3147 310° West 140 161 10,000  Level Denver Center
Fri 10:27:28 AM 42.3558 -104.3531 311° West 139 160 10,000  Level Denver Center
Fri 10:28:30 AM 42.3839 -104.3975 311° West 139 160 10,000  Level Denver Center
Fri 10:29:32 AM 42.4083 -104.4358 311° West 140 161 10,000  Level Denver Center
Fri 10:30:34 AM 42.4364 -104.4808 310° West 139 160 10,000  Level Denver Center
Fri 10:31:36 AM 42.4603 -104.5189 310° West 139 160 10,000  Level Denver Center
Fri 10:32:38 AM 42.4886 -104.5642 310° West 139 160 10,000  Level Denver Center
Fri 10:33:40 AM 42.5122 -104.6031 309° West 139 160 10,000  Level Denver Center
Fri 10:34:42 AM 42.5275 -104.6489 294° West 140 161 10,000  Level Denver Center
Fri 10:35:44 AM 42.5389 -104.7053 285° West 138 159 10,000  Level Denver Center
Fri 10:36:46 AM 42.5497 -104.7519 288° West 137 158 10,000  Level Denver Center
Fri 10:37:48 AM 42.5617 -104.8072 286° West 136 157 10,000  Level Denver Center
Fri 10:38:50 AM 42.5722 -104.8536 287° West 135 155 10,000  Level Denver Center
Fri 10:39:52 AM 42.5842 -104.9086 286° West 136 157 10,000  Level Denver Center
Fri 10:40:54 AM 42.5944 -104.9558 286° West 136 157 10,000  Level Denver Center
Fri 10:41:56 AM 42.6044 -105.0033 286° West 136 157 10,000  Level Denver Center
Fri 10:42:58 AM 42.6164 -105.0589 286° West 137 158 10,000  Level Denver Center
Fri 10:44:01 AM 42.6272 -105.1061 287° West 137 158 10,000  Level Denver Center
Fri 10:45:03 AM 42.6392 -105.1614 286° West 137 158 10,000  Level Denver Center
Fri 10:46:05 AM 42.6494 -105.2083 287° West 136 157 10,000  Level Denver Center
Fri 10:47:07 AM 42.6611 -105.2642 286° West 137 158 10,000  Level Denver Center
Fri 10:48:09 AM 42.6714 -105.3122 286° West 137 158 10,000  Level Denver Center
Fri 10:49:11 AM 42.6833 -105.3669 287° West 136 157 10,000  Level Denver Center
Fri 10:50:13 AM 42.6925 -105.4144 285° West 136 157 10,000  Level Denver Center
Fri 10:51:15 AM 42.7050 -105.4700 287° West 137 158 10,000  Level Denver Center
Fri 10:52:17 AM 42.7142 -105.5178 285° West 136 157 10,000  Level Denver Center
Fri 10:53:19 AM 42.7269 -105.5733 287° West 138 159 10,000  Level Denver Center
Fri 10:54:21 AM 42.7375 -105.6211 287° West 137 158 10,000  Level Denver Center
Fri 10:55:23 AM 42.7489 -105.6772 285° West 138 159 10,000  Level Denver Center
Fri 10:56:25 AM 42.7586 -105.7253 285° West 137 158 10,000 -97 Level Denver Center
Fri 10:57:27 AM 42.7683 -105.7747 285° West 139 160 9,800 -387 Descending Denver Center
Fri 10:58:29 AM 42.7825 -105.8336 288° West 143 165 9,200 -387 Descending Denver Center
Fri 10:59:31 AM 42.7956 -105.8864 289° West 150 173 9,000 -97 Descending Denver Center
Fri 11:00:33 AM 42.8136 -105.9417 294° West 146 168 9,000  Level Denver Center
Fri 11:01:35 AM 42.8322 -105.9847 301° West 141 162 9,000  Level Denver Center
Fri 11:02:37 AM 42.8461 -106.0417 288° West 141 162 9,000  Level Denver Center
Fri 11:03:39 AM 42.8544 -106.0917 283° West 141 162 9,000 -194 Level Denver Center
Fri 11:04:41 AM 42.8675 -106.1531 286° West 147 169 8,600 -484 Descending Denver Center
Fri 11:05:43 AM 42.8794 -106.2078 287° West 153 176 8,000 -581 Descending Denver Center
Fri 11:06:45 AM 42.8928 -106.2747 285° West 160 184 7,400 -480 Descending Denver Center
Fri 11:07:48 AM 42.9019 -106.3281 283° West 157 181 7,000 -288 Descending Denver Center
Fri 11:08:50 AM 42.9122 -106.3756 286° West 128 147 6,800 -527 Descending Denver Center
Fri 11:10:16 AM 42.9242 -106.4372 285° West 95 109 5,700 -767 Descending Denver Center
Fri 11:12:00 AM 42.9000 -106.4500 289° West  Level FlightAware Approximate
Fri 11:19:00 AM 42.9080 -106.4644 289° West  Level Estimated

Login

Don't have an account? Register now (free) for customized features, flight alerts, and more!